createdAt,value
2019-04-29T00:00:57.173Z,89.72
2019-04-29T00:03:25.160Z,89.92
2019-04-29T00:05:53.433Z,89.89
2019-04-29T00:08:21.898Z,89.94
2019-04-29T00:10:49.790Z,90.24
2019-04-29T00:13:18.181Z,90.92
2019-04-29T00:15:55.575Z,91.50
2019-04-29T00:18:42.971Z,92.43
2019-04-29T00:21:11.574Z,92.10
2019-04-29T00:23:40.176Z,91.46
2019-04-29T00:26:08.340Z,91.15
2019-04-29T00:28:36.554Z,91.39
2019-04-29T00:31:05.064Z,91.75
2019-04-29T00:33:32.970Z,92.16
2019-04-29T00:36:00.871Z,92.45
2019-04-29T00:38:47.109Z,92.20
2019-04-29T00:41:34.586Z,91.70
2019-04-29T00:44:07.851Z,91.62
2019-04-29T00:46:36.657Z,91.71
2019-04-29T00:49:05.155Z,91.57
2019-04-29T00:51:33.033Z,91.35
2019-04-29T00:54:06.281Z,91.59
2019-04-29T00:56:34.554Z,91.77
2019-04-29T00:59:02.464Z,91.74
2019-04-29T01:01:30.764Z,91.90
2019-04-29T01:03:59.073Z,92.25
2019-04-29T01:06:27.409Z,92.35
2019-04-29T01:08:55.603Z,92.51
2019-04-29T01:11:24.074Z,92.52
2019-04-29T01:13:52.685Z,92.47
2019-04-29T01:16:21.207Z,92.42
2019-04-29T01:18:49.425Z,92.43
2019-04-29T01:21:17.739Z,92.99
2019-04-29T01:23:46.010Z,93.17
2019-04-29T01:26:39.458Z,92.97
2019-04-29T01:29:07.958Z,92.62
2019-04-29T01:31:36.174Z,92.39
2019-04-29T01:34:28.573Z,92.50
2019-04-29T01:36:56.455Z,92.76
2019-04-29T01:39:31.788Z,92.92
2019-04-29T01:42:12.225Z,92.83
2019-04-29T01:44:40.659Z,92.70
2019-04-29T01:47:09.107Z,92.60
2019-04-29T01:49:37.426Z,92.69
2019-04-29T01:52:05.633Z,92.82
2019-04-29T01:54:33.945Z,92.96
2019-04-29T01:57:02.546Z,92.95
2019-04-29T01:59:30.621Z,92.88
2019-04-29T02:01:58.581Z,92.97
2019-04-29T02:04:26.488Z,92.97
2019-04-29T02:06:55.060Z,93.05
2019-04-29T02:09:28.915Z,93.16
2019-04-29T02:11:57.569Z,93.16
2019-04-29T02:14:25.833Z,93.24
2019-04-29T02:16:54.233Z,93.28
2019-04-29T02:19:22.806Z,93.40
2019-04-29T02:22:08.809Z,93.53
2019-04-29T02:24:38.514Z,93.42
2019-04-29T02:27:07.206Z,93.14
2019-04-29T02:29:35.366Z,92.93
2019-04-29T02:32:03.965Z,92.81
2019-04-29T02:34:32.806Z,92.94
2019-04-29T02:37:03.291Z,92.94
2019-04-29T02:39:37.386Z,92.98
2019-04-29T02:42:23.816Z,93.12
2019-04-29T02:44:52.715Z,93.33
2019-04-29T02:47:20.901Z,93.11
2019-04-29T02:49:49.277Z,92.98
2019-04-29T02:52:16.795Z,92.96
2019-04-29T02:54:45.737Z,93.06
2019-04-29T02:57:33.211Z,93.02
2019-04-29T03:00:10.765Z,92.98
2019-04-29T03:02:47.634Z,92.95
2019-04-29T03:05:18.451Z,93.22
2019-04-29T03:07:46.705Z,93.22
2019-04-29T03:10:15.238Z,93.38
2019-04-29T03:12:43.516Z,93.61
2019-04-29T03:15:12.325Z,94.00
2019-04-29T03:17:40.855Z,94.28
2019-04-29T03:20:15.268Z,94.23
2019-04-29T03:22:44.252Z,94.08
2019-04-29T03:25:12.446Z,93.95
2019-04-29T03:27:40.389Z,94.02
2019-04-29T03:30:08.927Z,93.99
2019-04-29T03:32:37.561Z,93.98
2019-04-29T03:35:06.478Z,93.97
2019-04-29T03:37:34.758Z,94.06
2019-04-29T03:40:02.651Z,93.70
2019-04-29T03:42:30.883Z,93.73
2019-04-29T03:44:59.066Z,93.78
2019-04-29T03:47:27.339Z,94.02
2019-04-29T03:49:55.976Z,94.18
2019-04-29T03:52:23.938Z,94.10
2019-04-29T03:54:52.564Z,93.88
2019-04-29T03:57:21.291Z,93.88
2019-04-29T03:59:49.487Z,93.99
2019-04-29T04:02:27.669Z,94.09
2019-04-29T04:05:20.430Z,94.46
2019-04-29T04:07:55.977Z,95.09
2019-04-29T04:10:23.936Z,95.11
2019-04-29T04:12:52.238Z,95.14
2019-04-29T04:15:20.538Z,95.15
2019-04-29T04:18:08.547Z,95.02
2019-04-29T04:20:37.326Z,95.05
2019-04-29T04:23:06.016Z,95.17
2019-04-29T04:25:34.396Z,95.07
2019-04-29T04:28:03.040Z,94.73
2019-04-29T04:30:31.265Z,94.54
2019-04-29T04:32:59.854Z,94.38
2019-04-29T04:35:28.147Z,94.25
2019-04-29T04:37:56.740Z,94.17
2019-04-29T04:40:30.682Z,94.09
2019-04-29T04:42:59.026Z,93.95
2019-04-29T04:45:27.211Z,94.24
2019-04-29T04:47:55.495Z,94.32
2019-04-29T04:50:23.716Z,93.88
2019-04-29T04:52:52.290Z,93.98
2019-04-29T04:55:22.376Z,94.00
2019-04-29T04:57:50.584Z,94.03
2019-04-29T05:00:21.926Z,94.08
2019-04-29T05:02:50.514Z,93.79
2019-04-29T05:05:19.111Z,93.73
2019-04-29T05:07:46.609Z,93.67
2019-04-29T05:10:15.189Z,93.71
2019-04-29T05:12:43.779Z,93.86
2019-04-29T05:15:20.762Z,93.79
2019-04-29T05:17:49.001Z,93.76
2019-04-29T05:20:16.974Z,93.94
2019-04-29T05:22:59.179Z,93.72
2019-04-29T05:25:29.194Z,93.52
2019-04-29T05:27:56.826Z,93.53
2019-04-29T05:30:25.139Z,93.34
2019-04-29T05:32:53.768Z,93.29
2019-04-29T05:35:24.876Z,93.57
2019-04-29T05:38:05.482Z,93.58
2019-04-29T05:40:42.316Z,93.68
2019-04-29T05:43:12.737Z,93.40
2019-04-29T05:45:50.825Z,93.52
2019-04-29T05:48:19.436Z,93.76
2019-04-29T05:50:59.814Z,93.99
2019-04-29T05:53:41.210Z,93.99
2019-04-29T05:56:09.985Z,93.83
2019-04-29T05:58:39.270Z,93.90
2019-04-29T06:01:15.721Z,93.93
2019-04-29T06:03:44.544Z,93.94
2019-04-29T06:06:12.575Z,93.82
2019-04-29T06:08:40.582Z,93.84
2019-04-29T06:11:08.680Z,94.19
2019-04-29T06:13:36.686Z,94.05
2019-04-29T06:16:04.834Z,93.58
2019-04-29T06:18:32.725Z,93.90
2019-04-29T06:21:08.865Z,93.83
2019-04-29T06:23:31.130Z,93.66
2019-04-29T06:25:59.287Z,93.45
2019-04-29T06:28:28.189Z,93.22
2019-04-29T06:30:56.532Z,93.35
2019-04-29T06:33:29.225Z,93.04
2019-04-29T06:35:57.045Z,93.10
2019-04-29T06:38:25.984Z,92.95
2019-04-29T06:40:54.197Z,92.40
2019-04-29T06:43:24.475Z,92.80
2019-04-29T06:45:52.928Z,92.57
2019-04-29T06:48:21.158Z,92.32
2019-04-29T06:50:49.815Z,91.75
2019-04-29T06:53:21.250Z,91.44
2019-04-29T06:55:48.199Z,90.79
2019-04-29T06:58:16.694Z,90.64
2019-04-29T07:00:44.979Z,90.48
2019-04-29T07:03:13.578Z,90.73
2019-04-29T07:05:41.524Z,90.03
2019-04-29T07:08:09.706Z,89.76
2019-04-29T07:10:38.029Z,89.88
2019-04-29T07:13:06.187Z,90.22
2019-04-29T07:15:34.960Z,89.41
2019-04-29T07:18:03.470Z,89.95
2019-04-29T07:20:32.548Z,89.82
2019-04-29T07:23:02.508Z,89.11
2019-04-29T07:25:30.444Z,89.46
2019-04-29T07:27:59.203Z,88.30
2019-04-29T07:30:29.291Z,88.35
2019-04-29T07:32:58.150Z,88.49
2019-04-29T07:35:26.126Z,87.47
2019-04-29T07:37:53.596Z,87.25
2019-04-29T07:40:22.102Z,86.58
2019-04-29T07:42:50.362Z,86.16
2019-04-29T07:45:28.159Z,86.78
2019-04-29T07:47:57.168Z,85.90
2019-04-29T07:50:26.624Z,85.69
2019-04-29T07:52:56.097Z,85.25
2019-04-29T07:55:25.891Z,85.87
2019-04-29T07:57:54.760Z,84.68
2019-04-29T08:00:32.704Z,85.47
2019-04-29T08:03:02.171Z,84.24
2019-04-29T08:05:30.691Z,84.57
2019-04-29T08:07:59.898Z,84.24
2019-04-29T08:10:29.820Z,81.45
2019-04-29T08:12:59.226Z,79.81
2019-04-29T08:15:27.190Z,80.48
2019-04-29T08:18:06.441Z,80.17
2019-04-29T08:20:25.912Z,80.70
2019-04-29T08:22:54.191Z,82.40
2019-04-29T08:25:25.954Z,79.91
2019-04-29T08:27:52.920Z,79.31
2019-04-29T08:30:20.710Z,81.71
2019-04-29T08:32:48.982Z,80.96
2019-04-29T08:35:17.550Z,81.32
2019-04-29T08:37:46.336Z,81.46
2019-04-29T08:40:16.903Z,79.71
2019-04-29T08:42:50.365Z,79.55
2019-04-29T08:45:39.074Z,79.59
2019-04-29T08:48:08.025Z,77.74
2019-04-29T08:50:35.904Z,79.94
2019-04-29T08:53:04.623Z,77.43
2019-04-29T08:55:36.160Z,77.25
2019-04-29T08:58:02.290Z,76.92
2019-04-29T09:00:30.465Z,74.57
2019-04-29T09:02:58.720Z,75.79
2019-04-29T09:05:27.443Z,77.30
2019-04-29T09:07:57.397Z,75.43
2019-04-29T09:10:25.425Z,76.85
2019-04-29T09:12:53.599Z,73.42
2019-04-29T09:15:21.465Z,76.05
2019-04-29T09:17:49.691Z,70.28
2019-04-29T09:20:18.490Z,71.55
2019-04-29T09:22:52.460Z,73.46
2019-04-29T09:25:45.767Z,70.90
2019-04-29T09:28:18.017Z,70.98
2019-04-29T09:30:43.679Z,71.12
2019-04-29T09:33:13.046Z,74.27
2019-04-29T09:35:42.534Z,75.49
2019-04-29T09:38:10.803Z,69.95
2019-04-29T09:40:45.700Z,74.96
2019-04-29T09:43:45.376Z,74.89
2019-04-29T09:46:18.629Z,70.34
2019-04-29T09:48:47.261Z,74.85
2019-04-29T09:51:17.637Z,68.11
2019-04-29T09:53:45.719Z,71.72
2019-04-29T09:56:13.652Z,71.40
2019-04-29T09:58:42.238Z,69.98
2019-04-29T10:01:20.917Z,69.93
2019-04-29T10:04:07.624Z,69.73
2019-04-29T10:06:36.966Z,66.80
2019-04-29T10:09:08.419Z,71.61
2019-04-29T10:11:36.861Z,69.66
2019-04-29T10:14:05.334Z,68.84
2019-04-29T10:17:01.867Z,69.71
2019-04-29T10:19:58.816Z,68.57
2019-04-29T10:22:27.093Z,70.90
2019-04-29T10:24:55.779Z,69.83
2019-04-29T10:27:24.370Z,69.26
2019-04-29T10:29:56.746Z,67.56
2019-04-29T10:32:24.612Z,66.92
2019-04-29T10:34:52.912Z,69.54
2019-04-29T10:37:23.810Z,68.33
2019-04-29T10:40:10.947Z,68.95
2019-04-29T10:42:40.081Z,67.36
2019-04-29T10:45:46.526Z,66.37
2019-04-29T10:48:22.167Z,68.55
2019-04-29T10:50:52.054Z,63.22
2019-04-29T10:53:20.672Z,63.63
2019-04-29T10:55:49.258Z,65.20
2019-04-29T10:58:21.955Z,61.50
2019-04-29T11:02:08.967Z,64.09
2019-04-29T11:04:36.133Z,63.45
2019-04-29T11:07:14.234Z,59.78
2019-04-29T11:09:55.975Z,63.46
2019-04-29T11:12:24.755Z,63.47
2019-04-29T11:14:52.612Z,64.25
2019-04-29T11:17:22.821Z,62.72
2019-04-29T11:19:51.047Z,55.00
2019-04-29T11:22:21.727Z,55.45
2019-04-29T11:25:07.981Z,60.08
2019-04-29T11:27:43.455Z,63.73
2019-04-29T11:30:15.232Z,61.23
2019-04-29T11:32:48.170Z,60.59
2019-04-29T11:35:24.613Z,58.58
2019-04-29T11:37:55.406Z,57.15
2019-04-29T11:40:26.041Z,57.12
2019-04-29T11:42:54.180Z,59.15
2019-04-29T11:45:22.366Z,51.06
2019-04-29T11:47:50.654Z,56.55
2019-04-29T11:50:37.852Z,55.52
2019-04-29T11:53:06.461Z,57.12
2019-04-29T11:55:35.062Z,55.63
2019-04-29T11:58:09.296Z,55.41
2019-04-29T12:00:55.475Z,56.27
2019-04-29T12:03:27.843Z,54.98
2019-04-29T12:05:59.242Z,54.33
2019-04-29T12:08:27.048Z,54.79
2019-04-29T12:11:06.499Z,55.76
2019-04-29T12:13:38.545Z,56.05
2019-04-29T12:16:35.050Z,55.43
2019-04-29T12:19:10.708Z,55.07
2019-04-29T12:21:39.643Z,58.36
2019-04-29T12:24:08.335Z,54.41
2019-04-29T12:26:42.937Z,58.50
2019-04-29T12:29:07.016Z,52.85
2019-04-29T12:31:54.567Z,57.22
2019-04-29T12:34:51.586Z,58.70
2019-04-29T12:37:54.260Z,54.71
2019-04-29T12:40:39.578Z,56.66
2019-04-29T12:43:26.017Z,56.26
2019-04-29T12:46:04.205Z,52.67
2019-04-29T12:48:32.588Z,55.84
2019-04-29T12:51:00.810Z,49.99
2019-04-29T12:53:29.496Z,55.40
2019-04-29T12:55:57.764Z,54.64
2019-04-29T12:58:26.038Z,52.37
2019-04-29T13:01:00.947Z,51.73
2019-04-29T13:03:49.246Z,56.14
2019-04-29T13:06:38.750Z,53.12
2019-04-29T13:09:01.724Z,49.35
2019-04-29T13:11:40.877Z,55.31
2019-04-29T13:14:01.926Z,54.02
2019-04-29T13:16:36.057Z,49.75
2019-04-29T13:19:19.908Z,52.77
2019-04-29T13:21:44.751Z,53.01
2019-04-29T13:24:22.428Z,52.16
2019-04-29T13:26:42.920Z,57.53
2019-04-29T13:29:25.828Z,52.20
2019-04-29T13:31:41.994Z,50.99
2019-04-29T13:34:23.707Z,49.54
2019-04-29T13:36:42.636Z,50.56
2019-04-29T13:39:10.521Z,56.62
2019-04-29T13:41:56.234Z,55.51
2019-04-29T13:44:10.065Z,57.64
2019-04-29T13:46:53.570Z,55.97
2019-04-29T13:49:34.947Z,56.93
2019-04-29T13:52:03.455Z,57.13
2019-04-29T13:54:31.810Z,55.55
2019-04-29T13:57:07.685Z,51.39
2019-04-29T13:59:37.565Z,53.94
2019-04-29T14:02:14.826Z,55.05
2019-04-29T14:04:46.338Z,54.01
2019-04-29T14:07:18.256Z,55.07
2019-04-29T14:09:47.730Z,52.36
2019-04-29T14:12:47.300Z,53.75
2019-04-29T14:14:45.257Z,50.66
2019-04-29T14:17:26.034Z,53.58
2019-04-29T14:19:44.427Z,51.45
2019-04-29T14:22:22.005Z,52.13
2019-04-29T14:24:42.733Z,52.72
2019-04-29T14:27:24.016Z,54.89
2019-04-29T14:29:41.707Z,55.44
2019-04-29T14:32:09.517Z,55.64
2019-04-29T14:34:50.072Z,55.34
2019-04-29T14:37:23.538Z,55.67
2019-04-29T14:39:48.401Z,55.02
2019-04-29T14:42:25.707Z,52.87
2019-04-29T14:45:23.006Z,52.15
2019-04-29T14:48:11.702Z,54.04
2019-04-29T14:50:40.569Z,55.69
2019-04-29T14:53:08.953Z,53.34
2019-04-29T14:55:37.233Z,52.57
2019-04-29T14:58:05.501Z,45.30
2019-04-29T15:00:59.634Z,44.86
2019-04-29T15:03:30.142Z,40.72
2019-04-29T15:05:58.136Z,42.28
2019-04-29T15:08:26.134Z,42.71
2019-04-29T15:10:54.697Z,44.75
2019-04-29T15:13:24.840Z,45.47
2019-04-29T15:16:04.752Z,46.99
2019-04-29T15:19:02.852Z,45.06
2019-04-29T15:21:55.339Z,42.87
2019-04-29T15:24:27.473Z,42.16
2019-04-29T15:26:54.232Z,39.56
2019-04-29T15:29:22.913Z,38.88
2019-04-29T15:31:51.212Z,42.51
2019-04-29T15:34:20.309Z,41.63
2019-04-29T15:36:49.005Z,43.40
2019-04-29T15:39:17.847Z,44.82
2019-04-29T15:41:47.608Z,44.32
2019-04-29T15:44:20.322Z,47.12
2019-04-29T15:46:47.652Z,48.66
2019-04-29T15:49:19.996Z,53.08
2019-04-29T15:51:49.326Z,52.68
2019-04-29T15:54:16.791Z,50.65
2019-04-29T15:56:45.394Z,49.12
2019-04-29T15:59:14.071Z,51.24
2019-04-29T16:01:42.935Z,51.47
2019-04-29T16:04:15.796Z,51.64
2019-04-29T16:07:03.386Z,54.38
2019-04-29T16:09:52.148Z,53.64
2019-04-29T16:12:24.070Z,56.55
2019-04-29T16:14:52.809Z,56.74
2019-04-29T16:17:21.186Z,60.12
2019-04-29T16:19:49.815Z,60.80
2019-04-29T16:22:19.811Z,62.75
2019-04-29T16:24:48.273Z,65.36
2019-04-29T16:27:16.638Z,65.93
2019-04-29T16:29:46.169Z,66.84
2019-04-29T16:32:22.257Z,67.77
2019-04-29T16:34:50.880Z,66.04
2019-04-29T16:37:24.506Z,65.34
2019-04-29T16:39:52.779Z,66.41
2019-04-29T16:42:34.247Z,67.76
2019-04-29T16:45:06.137Z,68.73
2019-04-29T16:47:31.969Z,67.25
2019-04-29T16:50:04.713Z,66.37
2019-04-29T16:52:31.250Z,66.79
2019-04-29T16:55:04.182Z,66.87
2019-04-29T16:57:30.658Z,67.93
2019-04-29T16:59:58.206Z,67.96
2019-04-29T17:02:26.480Z,67.78
2019-04-29T17:04:54.721Z,68.70
2019-04-29T17:07:23.456Z,69.89
2019-04-29T17:10:09.133Z,69.58
2019-04-29T17:12:40.750Z,69.65
2019-04-29T17:15:23.764Z,68.79
2019-04-29T17:17:39.665Z,70.48
2019-04-29T17:20:07.949Z,70.00
2019-04-29T17:22:43.384Z,69.33
2019-04-29T17:25:08.912Z,69.94
2019-04-29T17:27:56.374Z,69.68
2019-04-29T17:30:56.706Z,70.44
2019-04-29T17:33:35.742Z,70.18
2019-04-29T17:36:05.032Z,71.78
2019-04-29T17:38:33.178Z,72.01
2019-04-29T17:41:01.792Z,70.91
2019-04-29T17:43:49.907Z,71.63
2019-04-29T17:46:52.711Z,72.71
2019-04-29T17:49:30.820Z,73.39
2019-04-29T17:52:03.057Z,73.33
2019-04-29T17:54:34.880Z,73.63
2019-04-29T17:57:28.171Z,72.53
2019-04-29T18:00:18.976Z,74.74
2019-04-29T18:03:12.625Z,75.48
2019-04-29T18:05:58.918Z,77.02
2019-04-29T18:08:33.538Z,79.06
2019-04-29T18:11:04.750Z,79.66
2019-04-29T18:13:32.571Z,80.42
2019-04-29T18:16:04.310Z,80.34
2019-04-29T18:18:47.357Z,81.64
2019-04-29T18:21:32.027Z,82.63
2019-04-29T18:24:13.102Z,83.46
2019-04-29T18:26:48.271Z,84.41
2019-04-29T18:29:19.048Z,84.65
2019-04-29T18:31:47.720Z,85.58
2019-04-29T18:34:16.448Z,85.89
2019-04-29T18:36:45.822Z,85.82
2019-04-29T18:39:20.176Z,86.38
2019-04-29T18:41:48.410Z,87.17
2019-04-29T18:44:19.497Z,87.05
2019-04-29T18:46:53.533Z,87.61
2019-04-29T18:49:17.617Z,88.27
2019-04-29T18:51:45.884Z,87.65
2019-04-29T18:54:14.233Z,88.45
2019-04-29T18:56:42.162Z,88.14
2019-04-29T18:59:10.203Z,88.78
2019-04-29T19:01:38.824Z,89.36
2019-04-29T19:04:26.773Z,89.40
2019-04-29T19:06:59.401Z,89.81
2019-04-29T19:09:32.332Z,90.07
2019-04-29T19:11:58.907Z,90.18
2019-04-29T19:14:28.364Z,90.31
2019-04-29T19:17:00.077Z,89.94
2019-04-29T19:19:26.147Z,90.20
2019-04-29T19:21:55.887Z,89.98
2019-04-29T19:24:24.393Z,90.29
2019-04-29T19:26:55.646Z,90.52
2019-04-29T19:29:23.086Z,90.17
2019-04-29T19:31:51.796Z,90.26
2019-04-29T19:34:20.341Z,89.97
2019-04-29T19:36:50.627Z,90.13
2019-04-29T19:39:21.965Z,89.99
2019-04-29T19:41:50.429Z,89.85
2019-04-29T19:44:18.909Z,89.74
2019-04-29T19:46:47.411Z,89.10
2019-04-29T19:49:15.858Z,89.31
2019-04-29T19:51:47.248Z,89.61
2019-04-29T19:54:18.544Z,89.75
2019-04-29T19:56:43.984Z,88.98
2019-04-29T19:59:14.743Z,88.99
2019-04-29T20:01:46.446Z,88.70
2019-04-29T20:04:34.809Z,89.22
2019-04-29T20:07:07.303Z,89.61
2019-04-29T20:09:34.949Z,89.57
2019-04-29T20:12:11.312Z,89.01
2019-04-29T20:14:34.060Z,89.39
2019-04-29T20:17:24.623Z,89.75
2019-04-29T20:20:19.636Z,90.20
2019-04-29T20:22:51.054Z,89.89
2019-04-29T20:25:29.188Z,90.01
2019-04-29T20:27:49.944Z,89.72
2019-04-29T20:30:20.949Z,89.92
2019-04-29T20:32:48.849Z,89.88
2019-04-29T20:35:18.345Z,90.81
2019-04-29T20:37:47.763Z,90.25
2019-04-29T20:40:17.837Z,90.76
2019-04-29T20:42:48.937Z,89.68
2019-04-29T20:45:20.113Z,90.21
2019-04-29T20:47:47.657Z,90.49
2019-04-29T20:50:16.956Z,90.48
2019-04-29T20:53:16.726Z,91.38
2019-04-29T20:55:46.096Z,91.72
2019-04-29T20:58:15.647Z,91.98
2019-04-29T21:00:45.399Z,92.14
2019-04-29T21:03:14.495Z,92.27
2019-04-29T21:05:48.101Z,91.20
2019-04-29T21:08:19.115Z,91.50
2019-04-29T21:10:48.427Z,91.06
2019-04-29T21:13:42.851Z,90.67
2019-04-29T21:16:22.816Z,91.14
2019-04-29T21:18:53.215Z,91.40
2019-04-29T21:21:22.362Z,90.24
2019-04-29T21:23:51.160Z,90.62
2019-04-29T21:26:20.710Z,91.09
2019-04-29T21:28:49.320Z,90.50
2019-04-29T21:31:19.977Z,90.37
2019-04-29T21:33:50.785Z,91.21
2019-04-29T21:36:45.810Z,91.26
2019-04-29T21:39:36.425Z,91.88
2019-04-29T21:42:19.463Z,91.04
2019-04-29T21:44:49.062Z,91.03
2019-04-29T21:47:17.848Z,91.58
2019-04-29T21:49:49.908Z,91.97
2019-04-29T21:52:19.645Z,92.50
2019-04-29T21:54:49.280Z,92.76
2019-04-29T21:57:23.750Z,92.04
2019-04-29T21:59:49.439Z,91.79
2019-04-29T22:02:18.335Z,92.43
2019-04-29T22:04:49.632Z,92.90
2019-04-29T22:07:18.398Z,93.31
2019-04-29T22:09:49.994Z,93.38
2019-04-29T22:12:20.208Z,93.11
2019-04-29T22:14:52.853Z,93.06
2019-04-29T22:17:17.817Z,91.77
2019-04-29T22:19:46.122Z,92.08
2019-04-29T22:22:14.359Z,91.90
2019-04-29T22:24:42.283Z,92.29
2019-04-29T22:27:10.993Z,92.13
2019-04-29T22:29:39.485Z,92.04
2019-04-29T22:32:14.331Z,91.97
2019-04-29T22:34:37.664Z,91.60
2019-04-29T22:37:05.958Z,91.79
2019-04-29T22:39:35.711Z,92.07
2019-04-29T22:42:19.032Z,92.71
2019-04-29T22:44:47.377Z,92.87
2019-04-29T22:47:17.339Z,92.88
2019-04-29T22:49:46.628Z,93.07
2019-04-29T22:52:15.071Z,93.57
2019-04-29T22:54:45.516Z,93.12
2019-04-29T22:57:13.389Z,93.54
2019-04-29T22:59:41.307Z,93.63
2019-04-29T23:02:09.942Z,93.35
2019-04-29T23:04:38.123Z,93.73
2019-04-29T23:07:06.859Z,93.34
2019-04-29T23:09:36.608Z,93.04
2019-04-29T23:12:05.490Z,92.50
2019-04-29T23:14:34.056Z,92.76
2019-04-29T23:17:06.137Z,93.00
2019-04-29T23:19:32.144Z,93.21
2019-04-29T23:22:15.437Z,93.10
2019-04-29T23:25:02.558Z,93.42
2019-04-29T23:27:30.438Z,93.69
2019-04-29T23:29:58.722Z,93.69
2019-04-29T23:32:26.983Z,93.62
2019-04-29T23:34:55.022Z,93.68
2019-04-29T23:37:29.078Z,94.03
2019-04-29T23:39:55.753Z,93.65
2019-04-29T23:42:23.723Z,93.34
2019-04-29T23:44:51.686Z,93.57
2019-04-29T23:47:19.840Z,94.03
2019-04-29T23:49:48.137Z,94.43
2019-04-29T23:52:18.000Z,94.37
2019-04-29T23:54:48.558Z,94.47
2019-04-29T23:57:41.273Z,94.15
